sensor_id;sensor_type;location;lat;lon;timestamp;P1;durP1;ratioP1;P2;durP2;ratioP2
64609;SDS011;51019;46.090;6.350;2022-07-29T00:00:22;9.30;;;3.03;;
64609;SDS011;51019;46.090;6.350;2022-07-29T00:02:48;10.45;;;3.13;;
64609;SDS011;51019;46.090;6.350;2022-07-29T00:05:13;11.13;;;3.22;;
64609;SDS011;51019;46.090;6.350;2022-07-29T00:07:39;10.20;;;2.97;;
64609;SDS011;51019;46.090;6.350;2022-07-29T00:10:06;10.23;;;3.10;;
64609;SDS011;51019;46.090;6.350;2022-07-29T00:12:31;10.95;;;3.20;;
64609;SDS011;51019;46.090;6.350;2022-07-29T00:14:57;10.35;;;3.22;;
64609;SDS011;51019;46.090;6.350;2022-07-29T00:17:23;12.15;;;3.15;;
64609;SDS011;51019;46.090;6.350;2022-07-29T00:19:49;11.10;;;2.80;;
64609;SDS011;51019;46.090;6.350;2022-07-29T00:22:14;10.23;;;3.10;;
64609;SDS011;51019;46.090;6.350;2022-07-29T00:24:40;9.77;;;3.00;;
64609;SDS011;51019;46.090;6.350;2022-07-29T00:27:06;9.68;;;3.08;;
64609;SDS011;51019;46.090;6.350;2022-07-29T00:29:31;11.07;;;3.13;;
64609;SDS011;51019;46.090;6.350;2022-07-29T00:31:56;11.07;;;2.90;;
64609;SDS011;51019;46.090;6.350;2022-07-29T00:34:22;9.77;;;2.88;;
64609;SDS011;51019;46.090;6.350;2022-07-29T00:37:06;11.95;;;3.20;;
64609;SDS011;51019;46.090;6.350;2022-07-29T00:39:31;12.05;;;2.90;;
64609;SDS011;51019;46.090;6.350;2022-07-29T00:41:57;13.00;;;3.30;;
64609;SDS011;51019;46.090;6.350;2022-07-29T00:44:22;9.02;;;2.58;;
64609;SDS011;51019;46.090;6.350;2022-07-29T00:46:47;10.52;;;2.80;;
64609;SDS011;51019;46.090;6.350;2022-07-29T00:49:13;9.38;;;2.88;;
64609;SDS011;51019;46.090;6.350;2022-07-29T00:51:38;9.20;;;2.90;;
64609;SDS011;51019;46.090;6.350;2022-07-29T00:54:04;11.07;;;2.90;;
64609;SDS011;51019;46.090;6.350;2022-07-29T00:56:31;10.32;;;2.78;;
64609;SDS011;51019;46.090;6.350;2022-07-29T00:58:57;10.18;;;2.92;;
64609;SDS011;51019;46.090;6.350;2022-07-29T01:01:23;9.30;;;2.95;;
64609;SDS011;51019;46.090;6.350;2022-07-29T01:03:49;8.05;;;2.63;;
64609;SDS011;51019;46.090;6.350;2022-07-29T01:06:16;10.48;;;3.05;;
64609;SDS011;51019;46.090;6.350;2022-07-29T01:08:43;8.70;;;2.75;;
64609;SDS011;51019;46.090;6.350;2022-07-29T01:11:10;9.98;;;3.40;;
64609;SDS011;51019;46.090;6.350;2022-07-29T01:13:36;10.38;;;3.15;;
64609;SDS011;51019;46.090;6.350;2022-07-29T01:16:36;9.60;;;3.28;;
64609;SDS011;51019;46.090;6.350;2022-07-29T01:19:00;10.50;;;2.92;;
64609;SDS011;51019;46.090;6.350;2022-07-29T01:24:33;10.02;;;3.05;;
64609;SDS011;51019;46.090;6.350;2022-07-29T01:29:52;9.93;;;3.05;;
64609;SDS011;51019;46.090;6.350;2022-07-29T01:32:21;8.63;;;3.03;;
64609;SDS011;51019;46.090;6.350;2022-07-29T01:35:10;10.32;;;3.15;;
64609;SDS011;51019;46.090;6.350;2022-07-29T01:40:40;9.95;;;2.80;;
64609;SDS011;51019;46.090;6.350;2022-07-29T01:43:16;9.82;;;3.30;;
64609;SDS011;51019;46.090;6.350;2022-07-29T01:48:23;9.77;;;3.17;;
64609;SDS011;51019;46.090;6.350;2022-07-29T01:51:05;9.93;;;3.25;;
64609;SDS011;51019;46.090;6.350;2022-07-29T01:53:37;9.93;;;2.85;;
64609;SDS011;51019;46.090;6.350;2022-07-29T01:56:08;9.80;;;2.97;;
64609;SDS011;51019;46.090;6.350;2022-07-29T01:58:35;10.88;;;3.13;;
64609;SDS011;51019;46.090;6.350;2022-07-29T02:01:03;9.80;;;3.15;;
64609;SDS011;51019;46.090;6.350;2022-07-29T02:03:33;9.23;;;2.97;;
64609;SDS011;51019;46.090;6.350;2022-07-29T02:06:01;9.60;;;3.05;;
64609;SDS011;51019;46.090;6.350;2022-07-29T02:08:29;12.05;;;3.28;;
64609;SDS011;51019;46.090;6.350;2022-07-29T02:10:58;11.93;;;3.13;;
64609;SDS011;51019;46.090;6.350;2022-07-29T02:13:26;9.02;;;2.88;;
64609;SDS011;51019;46.090;6.350;2022-07-29T02:15:54;11.07;;;2.97;;
64609;SDS011;51019;46.090;6.350;2022-07-29T02:18:22;10.38;;;3.10;;
64609;SDS011;51019;46.090;6.350;2022-07-29T02:20:51;8.68;;;2.92;;
64609;SDS011;51019;46.090;6.350;2022-07-29T02:23:23;11.40;;;3.65;;
64609;SDS011;51019;46.090;6.350;2022-07-29T02:25:51;10.52;;;3.17;;
64609;SDS011;51019;46.090;6.350;2022-07-29T02:28:20;8.73;;;2.63;;
64609;SDS011;51019;46.090;6.350;2022-07-29T02:30:47;8.98;;;3.08;;
64609;SDS011;51019;46.090;6.350;2022-07-29T02:33:17;10.45;;;3.00;;
64609;SDS011;51019;46.090;6.350;2022-07-29T02:35:44;11.60;;;2.60;;
64609;SDS011;51019;46.090;6.350;2022-07-29T02:38:12;10.00;;;2.97;;
64609;SDS011;51019;46.090;6.350;2022-07-29T02:41:00;8.55;;;2.53;;
64609;SDS011;51019;46.090;6.350;2022-07-29T02:43:28;10.00;;;3.10;;
64609;SDS011;51019;46.090;6.350;2022-07-29T02:45:55;10.15;;;3.30;;
64609;SDS011;51019;46.090;6.350;2022-07-29T02:48:26;10.82;;;3.05;;
64609;SDS011;51019;46.090;6.350;2022-07-29T02:51:00;9.07;;;2.85;;
64609;SDS011;51019;46.090;6.350;2022-07-29T02:53:30;8.60;;;2.78;;
64609;SDS011;51019;46.090;6.350;2022-07-29T02:56:00;10.57;;;2.92;;
64609;SDS011;51019;46.090;6.350;2022-07-29T02:58:33;11.32;;;3.03;;
64609;SDS011;51019;46.090;6.350;2022-07-29T03:01:03;9.15;;;2.90;;
64609;SDS011;51019;46.090;6.350;2022-07-29T03:03:35;10.60;;;3.20;;
64609;SDS011;51019;46.090;6.350;2022-07-29T03:06:02;11.40;;;2.92;;
64609;SDS011;51019;46.090;6.350;2022-07-29T03:08:29;10.02;;;2.75;;
64609;SDS011;51019;46.090;6.350;2022-07-29T03:10:56;8.93;;;2.65;;
64609;SDS011;51019;46.090;6.350;2022-07-29T03:13:22;9.88;;;2.78;;
64609;SDS011;51019;46.090;6.350;2022-07-29T03:15:48;10.88;;;3.08;;
64609;SDS011;51019;46.090;6.350;2022-07-29T03:18:14;9.05;;;2.78;;
64609;SDS011;51019;46.090;6.350;2022-07-29T03:20:40;8.82;;;2.92;;
64609;SDS011;51019;46.090;6.350;2022-07-29T03:23:06;10.13;;;3.08;;
64609;SDS011;51019;46.090;6.350;2022-07-29T03:25:33;9.70;;;3.25;;
64609;SDS011;51019;46.090;6.350;2022-07-29T03:27:58;9.77;;;2.92;;
64609;SDS011;51019;46.090;6.350;2022-07-29T03:30:24;11.63;;;3.45;;
64609;SDS011;51019;46.090;6.350;2022-07-29T03:32:50;9.68;;;3.00;;
64609;SDS011;51019;46.090;6.350;2022-07-29T03:35:17;12.77;;;3.00;;
64609;SDS011;51019;46.090;6.350;2022-07-29T03:37:43;9.57;;;2.72;;
64609;SDS011;51019;46.090;6.350;2022-07-29T03:40:10;10.27;;;3.15;;
64609;SDS011;51019;46.090;6.350;2022-07-29T03:42:40;11.98;;;3.13;;
64609;SDS011;51019;46.090;6.350;2022-07-29T03:45:08;12.50;;;3.42;;
64609;SDS011;51019;46.090;6.350;2022-07-29T03:47:38;9.45;;;2.70;;
64609;SDS011;51019;46.090;6.350;2022-07-29T03:50:08;9.23;;;2.88;;
64609;SDS011;51019;46.090;6.350;2022-07-29T03:52:36;15.45;;;3.10;;
64609;SDS011;51019;46.090;6.350;2022-07-29T03:55:02;10.30;;;2.88;;
64609;SDS011;51019;46.090;6.350;2022-07-29T03:57:28;10.90;;;2.78;;
64609;SDS011;51019;46.090;6.350;2022-07-29T03:59:56;12.95;;;3.20;;
64609;SDS011;51019;46.090;6.350;2022-07-29T04:02:22;8.88;;;2.78;;
64609;SDS011;51019;46.090;6.350;2022-07-29T04:04:50;12.32;;;3.25;;
64609;SDS011;51019;46.090;6.350;2022-07-29T04:07:16;11.63;;;3.22;;
64609;SDS011;51019;46.090;6.350;2022-07-29T04:09:41;11.27;;;2.95;;
64609;SDS011;51019;46.090;6.350;2022-07-29T04:12:07;10.63;;;2.83;;
64609;SDS011;51019;46.090;6.350;2022-07-29T04:14:33;9.07;;;2.80;;
64609;SDS011;51019;46.090;6.350;2022-07-29T04:16:59;10.63;;;3.13;;
64609;SDS011;51019;46.090;6.350;2022-07-29T04:19:29;10.85;;;2.88;;
64609;SDS011;51019;46.090;6.350;2022-07-29T04:21:55;9.40;;;3.08;;
64609;SDS011;51019;46.090;6.350;2022-07-29T04:24:21;8.75;;;2.85;;
64609;SDS011;51019;46.090;6.350;2022-07-29T04:26:46;10.20;;;2.97;;
64609;SDS011;51019;46.090;6.350;2022-07-29T04:29:12;10.48;;;3.15;;
64609;SDS011;51019;46.090;6.350;2022-07-29T04:31:39;7.95;;;2.60;;
64609;SDS011;51019;46.090;6.350;2022-07-29T04:34:08;9.80;;;3.15;;
64609;SDS011;51019;46.090;6.350;2022-07-29T04:36:33;8.10;;;2.80;;
64609;SDS011;51019;46.090;6.350;2022-07-29T04:38:59;10.15;;;3.33;;
64609;SDS011;51019;46.090;6.350;2022-07-29T04:41:26;11.15;;;3.13;;
64609;SDS011;51019;46.090;6.350;2022-07-29T04:43:52;8.95;;;2.88;;
64609;SDS011;51019;46.090;6.350;2022-07-29T04:46:18;12.40;;;3.30;;
64609;SDS011;51019;46.090;6.350;2022-07-29T04:48:45;13.18;;;3.00;;
64609;SDS011;51019;46.090;6.350;2022-07-29T04:51:11;10.07;;;3.33;;
64609;SDS011;51019;46.090;6.350;2022-07-29T04:53:36;10.60;;;3.15;;
64609;SDS011;51019;46.090;6.350;2022-07-29T04:56:02;9.90;;;3.38;;
64609;SDS011;51019;46.090;6.350;2022-07-29T04:58:28;11.60;;;3.80;;
64609;SDS011;51019;46.090;6.350;2022-07-29T05:00:53;12.57;;;4.45;;
64609;SDS011;51019;46.090;6.350;2022-07-29T05:03:18;9.10;;;2.97;;
64609;SDS011;51019;46.090;6.350;2022-07-29T05:05:44;9.50;;;3.25;;
64609;SDS011;51019;46.090;6.350;2022-07-29T05:08:09;9.23;;;2.90;;
64609;SDS011;51019;46.090;6.350;2022-07-29T05:10:35;11.45;;;3.47;;
64609;SDS011;51019;46.090;6.350;2022-07-29T05:13:04;14.77;;;3.40;;
64609;SDS011;51019;46.090;6.350;2022-07-29T05:15:31;12.63;;;3.58;;
64609;SDS011;51019;46.090;6.350;2022-07-29T05:17:57;11.10;;;3.17;;
64609;SDS011;51019;46.090;6.350;2022-07-29T05:20:22;10.20;;;3.50;;
64609;SDS011;51019;46.090;6.350;2022-07-29T05:22:53;10.57;;;3.10;;
64609;SDS011;51019;46.090;6.350;2022-07-29T05:25:19;10.73;;;3.13;;
64609;SDS011;51019;46.090;6.350;2022-07-29T05:27:44;9.85;;;3.10;;
64609;SDS011;51019;46.090;6.350;2022-07-29T05:30:10;9.48;;;2.92;;
64609;SDS011;51019;46.090;6.350;2022-07-29T05:32:35;10.63;;;3.55;;
64609;SDS011;51019;46.090;6.350;2022-07-29T05:35:01;11.27;;;3.33;;
64609;SDS011;51019;46.090;6.350;2022-07-29T05:37:26;9.90;;;2.70;;
64609;SDS011;51019;46.090;6.350;2022-07-29T05:39:52;9.88;;;3.03;;
64609;SDS011;51019;46.090;6.350;2022-07-29T05:42:17;10.25;;;3.10;;
64609;SDS011;51019;46.090;6.350;2022-07-29T05:44:43;10.57;;;3.03;;
64609;SDS011;51019;46.090;6.350;2022-07-29T05:47:08;10.75;;;3.30;;
64609;SDS011;51019;46.090;6.350;2022-07-29T05:49:33;11.63;;;4.03;;
64609;SDS011;51019;46.090;6.350;2022-07-29T05:51:59;10.05;;;3.15;;
64609;SDS011;51019;46.090;6.350;2022-07-29T05:54:24;11.18;;;3.33;;
64609;SDS011;51019;46.090;6.350;2022-07-29T05:56:50;9.20;;;3.30;;
64609;SDS011;51019;46.090;6.350;2022-07-29T05:59:16;9.88;;;2.90;;
64609;SDS011;51019;46.090;6.350;2022-07-29T06:01:41;10.68;;;3.13;;
64609;SDS011;51019;46.090;6.350;2022-07-29T06:04:06;11.00;;;3.40;;
64609;SDS011;51019;46.090;6.350;2022-07-29T06:06:32;10.93;;;3.45;;
64609;SDS011;51019;46.090;6.350;2022-07-29T06:08:58;10.35;;;3.40;;
64609;SDS011;51019;46.090;6.350;2022-07-29T06:11:24;8.52;;;2.63;;
64609;SDS011;51019;46.090;6.350;2022-07-29T06:13:49;11.95;;;3.42;;
64609;SDS011;51019;46.090;6.350;2022-07-29T06:16:15;10.25;;;3.10;;
64609;SDS011;51019;46.090;6.350;2022-07-29T06:18:40;10.50;;;3.08;;
64609;SDS011;51019;46.090;6.350;2022-07-29T06:21:09;10.80;;;3.20;;
64609;SDS011;51019;46.090;6.350;2022-07-29T06:23:35;10.55;;;3.13;;
64609;SDS011;51019;46.090;6.350;2022-07-29T06:26:04;11.95;;;3.13;;
64609;SDS011;51019;46.090;6.350;2022-07-29T06:28:30;10.32;;;3.20;;
64609;SDS011;51019;46.090;6.350;2022-07-29T06:30:57;10.48;;;3.00;;
64609;SDS011;51019;46.090;6.350;2022-07-29T06:33:22;14.48;;;3.20;;
64609;SDS011;51019;46.090;6.350;2022-07-29T06:35:47;10.13;;;3.03;;
64609;SDS011;51019;46.090;6.350;2022-07-29T06:38:14;12.75;;;3.90;;
64609;SDS011;51019;46.090;6.350;2022-07-29T06:40:41;12.00;;;3.78;;
64609;SDS011;51019;46.090;6.350;2022-07-29T06:43:32;11.35;;;3.20;;
64609;SDS011;51019;46.090;6.350;2022-07-29T06:46:03;9.43;;;2.95;;
64609;SDS011;51019;46.090;6.350;2022-07-29T06:48:31;10.77;;;3.30;;
64609;SDS011;51019;46.090;6.350;2022-07-29T06:50:57;10.45;;;3.63;;
64609;SDS011;51019;46.090;6.350;2022-07-29T06:53:24;10.73;;;3.50;;
64609;SDS011;51019;46.090;6.350;2022-07-29T06:55:50;10.82;;;3.25;;
64609;SDS011;51019;46.090;6.350;2022-07-29T06:58:15;12.38;;;3.33;;
64609;SDS011;51019;46.090;6.350;2022-07-29T07:00:43;11.45;;;3.35;;
64609;SDS011;51019;46.090;6.350;2022-07-29T07:03:10;10.10;;;3.20;;
64609;SDS011;51019;46.090;6.350;2022-07-29T07:05:35;15.57;;;3.20;;
64609;SDS011;51019;46.090;6.350;2022-07-29T07:08:01;12.63;;;3.42;;
64609;SDS011;51019;46.090;6.350;2022-07-29T07:10:26;15.73;;;4.07;;
64609;SDS011;51019;46.090;6.350;2022-07-29T07:12:52;12.57;;;3.90;;
64609;SDS011;51019;46.090;6.350;2022-07-29T07:15:17;14.82;;;3.85;;
64609;SDS011;51019;46.090;6.350;2022-07-29T07:17:47;11.20;;;3.50;;
64609;SDS011;51019;46.090;6.350;2022-07-29T07:20:16;12.40;;;3.70;;
64609;SDS011;51019;46.090;6.350;2022-07-29T07:22:42;12.45;;;3.75;;
64609;SDS011;51019;46.090;6.350;2022-07-29T07:25:07;14.23;;;3.95;;
64609;SDS011;51019;46.090;6.350;2022-07-29T07:27:34;9.70;;;3.30;;
64609;SDS011;51019;46.090;6.350;2022-07-29T07:30:00;13.15;;;3.58;;
64609;SDS011;51019;46.090;6.350;2022-07-29T07:32:25;13.32;;;3.53;;
64609;SDS011;51019;46.090;6.350;2022-07-29T07:34:51;10.23;;;3.28;;
64609;SDS011;51019;46.090;6.350;2022-07-29T07:37:17;16.63;;;4.10;;
64609;SDS011;51019;46.090;6.350;2022-07-29T07:39:45;11.00;;;3.28;;
64609;SDS011;51019;46.090;6.350;2022-07-29T07:42:11;10.55;;;3.60;;
64609;SDS011;51019;46.090;6.350;2022-07-29T07:44:39;12.20;;;3.10;;
64609;SDS011;51019;46.090;6.350;2022-07-29T07:47:05;11.77;;;3.22;;
64609;SDS011;51019;46.090;6.350;2022-07-29T07:49:30;11.05;;;3.50;;
64609;SDS011;51019;46.090;6.350;2022-07-29T07:51:56;11.40;;;3.30;;
64609;SDS011;51019;46.090;6.350;2022-07-29T07:54:21;14.20;;;3.17;;
64609;SDS011;51019;46.090;6.350;2022-07-29T07:56:46;11.75;;;3.78;;
64609;SDS011;51019;46.090;6.350;2022-07-29T07:59:15;12.70;;;3.60;;
64609;SDS011;51019;46.090;6.350;2022-07-29T08:01:41;11.15;;;3.72;;
64609;SDS011;51019;46.090;6.350;2022-07-29T08:04:07;18.83;;;3.38;;
64609;SDS011;51019;46.090;6.350;2022-07-29T08:06:33;11.18;;;3.40;;
64609;SDS011;51019;46.090;6.350;2022-07-29T08:09:00;13.10;;;3.38;;
64609;SDS011;51019;46.090;6.350;2022-07-29T08:11:26;12.00;;;3.95;;
64609;SDS011;51019;46.090;6.350;2022-07-29T08:13:52;10.40;;;2.90;;
64609;SDS011;51019;46.090;6.350;2022-07-29T08:16:20;10.68;;;3.25;;
64609;SDS011;51019;46.090;6.350;2022-07-29T08:18:46;12.10;;;3.42;;
64609;SDS011;51019;46.090;6.350;2022-07-29T08:21:12;13.52;;;3.42;;
64609;SDS011;51019;46.090;6.350;2022-07-29T08:23:39;12.55;;;3.22;;
64609;SDS011;51019;46.090;6.350;2022-07-29T08:26:09;12.75;;;3.60;;
64609;SDS011;51019;46.090;6.350;2022-07-29T08:28:39;10.90;;;3.30;;
64609;SDS011;51019;46.090;6.350;2022-07-29T08:31:06;11.23;;;2.90;;
64609;SDS011;51019;46.090;6.350;2022-07-29T08:33:32;8.88;;;2.60;;
64609;SDS011;51019;46.090;6.350;2022-07-29T08:35:58;10.27;;;2.70;;
64609;SDS011;51019;46.090;6.350;2022-07-29T08:38:24;10.90;;;3.13;;
64609;SDS011;51019;46.090;6.350;2022-07-29T08:40:51;10.38;;;3.00;;
64609;SDS011;51019;46.090;6.350;2022-07-29T08:43:17;10.50;;;2.75;;
64609;SDS011;51019;46.090;6.350;2022-07-29T08:45:48;11.85;;;3.25;;
64609;SDS011;51019;46.090;6.350;2022-07-29T08:48:16;10.70;;;3.03;;
64609;SDS011;51019;46.090;6.350;2022-07-29T08:50:46;9.48;;;3.00;;
64609;SDS011;51019;46.090;6.350;2022-07-29T08:53:14;11.82;;;2.80;;
64609;SDS011;51019;46.090;6.350;2022-07-29T08:55:42;12.10;;;3.08;;
64609;SDS011;51019;46.090;6.350;2022-07-29T08:58:10;10.75;;;3.28;;
64609;SDS011;51019;46.090;6.350;2022-07-29T09:00:39;11.43;;;3.35;;
64609;SDS011;51019;46.090;6.350;2022-07-29T09:03:07;10.93;;;3.25;;
64609;SDS011;51019;46.090;6.350;2022-07-29T09:05:36;10.43;;;3.33;;
64609;SDS011;51019;46.090;6.350;2022-07-29T09:08:03;10.43;;;3.20;;
64609;SDS011;51019;46.090;6.350;2022-07-29T09:10:29;12.65;;;3.15;;
64609;SDS011;51019;46.090;6.350;2022-07-29T09:13:01;12.05;;;2.90;;
64609;SDS011;51019;46.090;6.350;2022-07-29T09:15:27;15.02;;;3.40;;
64609;SDS011;51019;46.090;6.350;2022-07-29T09:17:52;15.15;;;3.55;;
64609;SDS011;51019;46.090;6.350;2022-07-29T09:20:27;10.63;;;3.25;;
64609;SDS011;51019;46.090;6.350;2022-07-29T09:23:12;10.77;;;3.33;;
64609;SDS011;51019;46.090;6.350;2022-07-29T09:25:56;10.40;;;3.15;;
64609;SDS011;51019;46.090;6.350;2022-07-29T09:28:30;10.30;;;3.20;;
64609;SDS011;51019;46.090;6.350;2022-07-29T09:31:05;12.05;;;3.13;;
64609;SDS011;51019;46.090;6.350;2022-07-29T09:33:32;13.80;;;3.47;;
64609;SDS011;51019;46.090;6.350;2022-07-29T09:36:05;9.80;;;3.00;;
64609;SDS011;51019;46.090;6.350;2022-07-29T09:38:32;14.18;;;3.58;;
64609;SDS011;51019;46.090;6.350;2022-07-29T09:40:59;12.48;;;3.30;;
64609;SDS011;51019;46.090;6.350;2022-07-29T09:43:31;13.75;;;3.17;;
64609;SDS011;51019;46.090;6.350;2022-07-29T09:46:09;11.77;;;3.30;;
64609;SDS011;51019;46.090;6.350;2022-07-29T09:48:38;11.20;;;3.63;;
64609;SDS011;51019;46.090;6.350;2022-07-29T09:51:03;13.55;;;3.70;;
64609;SDS011;51019;46.090;6.350;2022-07-29T09:56:42;9.70;;;3.00;;
64609;SDS011;51019;46.090;6.350;2022-07-29T09:59:13;9.63;;;2.70;;
64609;SDS011;51019;46.090;6.350;2022-07-29T10:01:39;7.35;;;2.28;;
64609;SDS011;51019;46.090;6.350;2022-07-29T10:04:05;8.20;;;2.50;;
64609;SDS011;51019;46.090;6.350;2022-07-29T10:06:30;9.73;;;2.58;;
64609;SDS011;51019;46.090;6.350;2022-07-29T10:09:11;10.63;;;3.00;;
64609;SDS011;51019;46.090;6.350;2022-07-29T10:11:37;9.30;;;2.67;;
64609;SDS011;51019;46.090;6.350;2022-07-29T10:14:03;11.65;;;2.92;;
64609;SDS011;51019;46.090;6.350;2022-07-29T10:16:29;9.52;;;2.83;;
64609;SDS011;51019;46.090;6.350;2022-07-29T10:18:58;9.20;;;2.75;;
64609;SDS011;51019;46.090;6.350;2022-07-29T10:21:26;8.05;;;2.28;;
64609;SDS011;51019;46.090;6.350;2022-07-29T10:23:53;8.10;;;2.30;;
64609;SDS011;51019;46.090;6.350;2022-07-29T10:26:21;8.25;;;2.30;;
64609;SDS011;51019;46.090;6.350;2022-07-29T10:28:47;6.75;;;2.08;;
64609;SDS011;51019;46.090;6.350;2022-07-29T10:31:19;8.10;;;2.40;;
64609;SDS011;51019;46.090;6.350;2022-07-29T10:36:54;13.65;;;3.38;;
64609;SDS011;51019;46.090;6.350;2022-07-29T10:42:25;13.10;;;3.42;;
64609;SDS011;51019;46.090;6.350;2022-07-29T10:44:54;10.60;;;3.35;;
64609;SDS011;51019;46.090;6.350;2022-07-29T10:50:02;12.55;;;3.22;;
64609;SDS011;51019;46.090;6.350;2022-07-29T10:55:51;12.00;;;3.42;;
64609;SDS011;51019;46.090;6.350;2022-07-29T10:58:19;12.30;;;3.35;;
64609;SDS011;51019;46.090;6.350;2022-07-29T11:00:48;11.27;;;3.50;;
64609;SDS011;51019;46.090;6.350;2022-07-29T11:06:10;12.68;;;4.38;;
64609;SDS011;51019;46.090;6.350;2022-07-29T11:08:36;13.02;;;4.50;;
64609;SDS011;51019;46.090;6.350;2022-07-29T11:16:15;12.35;;;5.13;;
64609;SDS011;51019;46.090;6.350;2022-07-29T11:24:11;13.10;;;4.68;;
64609;SDS011;51019;46.090;6.350;2022-07-29T11:26:40;13.13;;;4.82;;
64609;SDS011;51019;46.090;6.350;2022-07-29T11:29:19;11.55;;;4.80;;
64609;SDS011;51019;46.090;6.350;2022-07-29T11:31:49;13.38;;;4.32;;
64609;SDS011;51019;46.090;6.350;2022-07-29T11:39:32;13.27;;;4.25;;
64609;SDS011;51019;46.090;6.350;2022-07-29T11:44:58;14.30;;;4.53;;
64609;SDS011;51019;46.090;6.350;2022-07-29T11:47:37;13.05;;;4.65;;
64609;SDS011;51019;46.090;6.350;2022-07-29T11:50:06;14.90;;;3.90;;
64609;SDS011;51019;46.090;6.350;2022-07-29T11:52:38;10.23;;;3.70;;
64609;SDS011;51019;46.090;6.350;2022-07-29T11:55:10;11.57;;;4.10;;
64609;SDS011;51019;46.090;6.350;2022-07-29T11:57:44;14.35;;;4.70;;
64609;SDS011;51019;46.090;6.350;2022-07-29T12:00:48;11.00;;;4.20;;
64609;SDS011;51019;46.090;6.350;2022-07-29T12:03:08;12.80;;;4.30;;
64609;SDS011;51019;46.090;6.350;2022-07-29T12:08:06;11.40;;;4.03;;
64609;SDS011;51019;46.090;6.350;2022-07-29T12:10:51;13.93;;;4.50;;
64609;SDS011;51019;46.090;6.350;2022-07-29T12:13:18;11.63;;;3.97;;
64609;SDS011;51019;46.090;6.350;2022-07-29T12:15:52;12.27;;;4.63;;
64609;SDS011;51019;46.090;6.350;2022-07-29T12:18:19;13.35;;;4.75;;
64609;SDS011;51019;46.090;6.350;2022-07-29T12:20:46;12.38;;;4.55;;
64609;SDS011;51019;46.090;6.350;2022-07-29T12:23:13;10.88;;;4.22;;
64609;SDS011;51019;46.090;6.350;2022-07-29T12:25:41;13.68;;;5.05;;
64609;SDS011;51019;46.090;6.350;2022-07-29T12:28:12;12.40;;;4.40;;
64609;SDS011;51019;46.090;6.350;2022-07-29T12:30:46;11.32;;;4.50;;
64609;SDS011;51019;46.090;6.350;2022-07-29T12:33:17;11.20;;;4.22;;
64609;SDS011;51019;46.090;6.350;2022-07-29T12:36:10;12.43;;;4.75;;
64609;SDS011;51019;46.090;6.350;2022-07-29T12:38:39;13.80;;;4.63;;
64609;SDS011;51019;46.090;6.350;2022-07-29T12:41:05;12.90;;;4.85;;
64609;SDS011;51019;46.090;6.350;2022-07-29T12:43:31;12.95;;;4.47;;
64609;SDS011;51019;46.090;6.350;2022-07-29T12:45:57;14.13;;;5.00;;
64609;SDS011;51019;46.090;6.350;2022-07-29T12:48:36;12.00;;;4.38;;
64609;SDS011;51019;46.090;6.350;2022-07-29T12:51:04;10.65;;;3.97;;
64609;SDS011;51019;46.090;6.350;2022-07-29T12:53:33;12.95;;;4.15;;
64609;SDS011;51019;46.090;6.350;2022-07-29T12:56:00;12.07;;;3.95;;
64609;SDS011;51019;46.090;6.350;2022-07-29T12:58:29;10.13;;;3.33;;
64609;SDS011;51019;46.090;6.350;2022-07-29T13:01:06;11.10;;;3.80;;
64609;SDS011;51019;46.090;6.350;2022-07-29T13:09:13;13.80;;;4.18;;
64609;SDS011;51019;46.090;6.350;2022-07-29T13:11:41;11.15;;;4.28;;
64609;SDS011;51019;46.090;6.350;2022-07-29T13:14:09;14.32;;;4.00;;
64609;SDS011;51019;46.090;6.350;2022-07-29T13:16:38;10.68;;;3.70;;
64609;SDS011;51019;46.090;6.350;2022-07-29T13:20:30;10.27;;;3.40;;
64609;SDS011;51019;46.090;6.350;2022-07-29T13:22:31;11.52;;;3.90;;
64609;SDS011;51019;46.090;6.350;2022-07-29T13:24:57;12.13;;;3.50;;
64609;SDS011;51019;46.090;6.350;2022-07-29T13:27:26;10.18;;;3.53;;
64609;SDS011;51019;46.090;6.350;2022-07-29T13:29:54;12.57;;;3.60;;
64609;SDS011;51019;46.090;6.350;2022-07-29T13:32:25;10.75;;;3.20;;
64609;SDS011;51019;46.090;6.350;2022-07-29T13:34:52;11.57;;;3.10;;
64609;SDS011;51019;46.090;6.350;2022-07-29T13:37:18;11.38;;;3.50;;
64609;SDS011;51019;46.090;6.350;2022-07-29T13:39:44;10.27;;;3.30;;
64609;SDS011;51019;46.090;6.350;2022-07-29T13:42:09;9.80;;;2.90;;
64609;SDS011;51019;46.090;6.350;2022-07-29T13:44:38;9.18;;;2.85;;
64609;SDS011;51019;46.090;6.350;2022-07-29T13:47:03;11.13;;;3.22;;
64609;SDS011;51019;46.090;6.350;2022-07-29T13:49:29;10.75;;;3.08;;
64609;SDS011;51019;46.090;6.350;2022-07-29T13:51:55;9.63;;;3.22;;
64609;SDS011;51019;46.090;6.350;2022-07-29T13:54:20;8.80;;;2.70;;
64609;SDS011;51019;46.090;6.350;2022-07-29T13:56:45;9.52;;;2.95;;
64609;SDS011;51019;46.090;6.350;2022-07-29T13:59:11;9.13;;;2.85;;
64609;SDS011;51019;46.090;6.350;2022-07-29T14:01:37;8.05;;;2.72;;
64609;SDS011;51019;46.090;6.350;2022-07-29T14:04:06;10.00;;;2.85;;
64609;SDS011;51019;46.090;6.350;2022-07-29T14:06:32;8.98;;;2.72;;
64609;SDS011;51019;46.090;6.350;2022-07-29T14:08:57;8.60;;;2.72;;
64609;SDS011;51019;46.090;6.350;2022-07-29T14:11:22;8.20;;;2.65;;
64609;SDS011;51019;46.090;6.350;2022-07-29T14:13:48;10.73;;;3.10;;
64609;SDS011;51019;46.090;6.350;2022-07-29T14:16:13;8.88;;;2.72;;
64609;SDS011;51019;46.090;6.350;2022-07-29T14:18:39;9.95;;;2.55;;
64609;SDS011;51019;46.090;6.350;2022-07-29T14:21:04;9.07;;;2.72;;
64609;SDS011;51019;46.090;6.350;2022-07-29T14:23:30;9.13;;;2.85;;
64609;SDS011;51019;46.090;6.350;2022-07-29T14:25:55;8.45;;;2.90;;
64609;SDS011;51019;46.090;6.350;2022-07-29T14:28:21;9.40;;;2.97;;
64609;SDS011;51019;46.090;6.350;2022-07-29T14:30:46;9.20;;;2.88;;
64609;SDS011;51019;46.090;6.350;2022-07-29T14:33:12;9.68;;;3.00;;
64609;SDS011;51019;46.090;6.350;2022-07-29T14:35:40;9.93;;;3.15;;
64609;SDS011;51019;46.090;6.350;2022-07-29T14:38:32;10.55;;;3.05;;
64609;SDS011;51019;46.090;6.350;2022-07-29T14:41:07;7.43;;;2.42;;
64609;SDS011;51019;46.090;6.350;2022-07-29T14:43:33;9.63;;;2.55;;
64609;SDS011;51019;46.090;6.350;2022-07-29T14:46:02;7.88;;;2.40;;
64609;SDS011;51019;46.090;6.350;2022-07-29T14:48:27;8.95;;;2.08;;
64609;SDS011;51019;46.090;6.350;2022-07-29T14:50:53;6.72;;;2.08;;
64609;SDS011;51019;46.090;6.350;2022-07-29T14:53:20;7.28;;;2.10;;
64609;SDS011;51019;46.090;6.350;2022-07-29T14:55:47;7.88;;;2.15;;
64609;SDS011;51019;46.090;6.350;2022-07-29T14:58:12;5.88;;;1.85;;
64609;SDS011;51019;46.090;6.350;2022-07-29T15:00:38;7.60;;;2.40;;
64609;SDS011;51019;46.090;6.350;2022-07-29T15:03:04;8.85;;;1.83;;
64609;SDS011;51019;46.090;6.350;2022-07-29T15:05:30;6.03;;;1.95;;
64609;SDS011;51019;46.090;6.350;2022-07-29T15:07:56;7.82;;;2.03;;
64609;SDS011;51019;46.090;6.350;2022-07-29T15:10:22;7.38;;;2.30;;
64609;SDS011;51019;46.090;6.350;2022-07-29T15:12:47;5.53;;;1.90;;
64609;SDS011;51019;46.090;6.350;2022-07-29T15:15:13;6.03;;;1.90;;
64609;SDS011;51019;46.090;6.350;2022-07-29T15:17:38;7.90;;;2.25;;
64609;SDS011;51019;46.090;6.350;2022-07-29T15:20:04;8.63;;;2.60;;
64609;SDS011;51019;46.090;6.350;2022-07-29T15:22:30;8.15;;;2.22;;
64609;SDS011;51019;46.090;6.350;2022-07-29T15:24:55;6.82;;;2.22;;
64609;SDS011;51019;46.090;6.350;2022-07-29T15:27:20;5.72;;;2.00;;
64609;SDS011;51019;46.090;6.350;2022-07-29T15:29:46;8.80;;;2.60;;
64609;SDS011;51019;46.090;6.350;2022-07-29T15:32:11;5.65;;;1.85;;
64609;SDS011;51019;46.090;6.350;2022-07-29T15:34:37;6.18;;;1.95;;
64609;SDS011;51019;46.090;6.350;2022-07-29T15:37:03;6.80;;;2.05;;
64609;SDS011;51019;46.090;6.350;2022-07-29T15:39:29;6.32;;;2.00;;